Time;durP1;ratioP1;P1;durP2;ratioP2;P2;SDS_P1;SDS_P2;PMS_P1;PMS_P2;Temp;Humidity;BMP_temperature;BMP_pressure;BME280_temperature;BME280_humidity;BME280_pressure;Samples;Min_cycle;Max_cycle;Signal;HPM_P1;HPM_P2
2024/04/03 00:02:23;;;;;;;5.65;2.75;;;;;;;12.73;96.96;99779.34;5060270;28;20106;-67
2024/04/03 00:04:48;;;;;;;6.80;2.08;;;;;;;12.37;97.22;99782.09;5045470;28;20028;-67
2024/04/03 00:07:13;;;;;;;4.13;2.10;;;;;;;12.53;97.58;99774.38;5009354;28;20033;-68
2024/04/03 00:09:39;;;;;;;13.05;2.60;;;;;;;12.63;96.95;99778.19;5029214;28;21319;-67
2024/04/03 00:12:06;;;;;;;7.25;2.63;;;;;;;12.60;96.93;99785.16;5039388;28;20120;-67
2024/04/03 00:14:31;;;;;;;7.40;2.30;;;;;;;12.67;97.19;99778.97;5031616;28;20033;-67
2024/04/03 00:16:56;;;;;;;11.38;3.20;;;;;;;12.70;96.81;99789.75;5029352;28;20037;-67
2024/04/03 00:19:22;;;;;;;8.32;2.55;;;;;;;12.69;96.35;99785.53;5044297;28;20475;-67
2024/04/03 00:21:50;;;;;;;5.90;2.72;;;;;;;12.68;96.66;99785.91;5028731;28;20036;-67
2024/04/03 00:24:16;;;;;;;8.38;2.28;;;;;;;12.67;96.44;99787.06;5028609;28;20033;-68
2024/04/03 00:26:41;;;;;;;6.85;2.80;;;;;;;12.65;96.32;99792.09;5024908;28;20025;-67
2024/04/03 00:29:07;;;;;;;5.28;2.70;;;;;;;12.65;96.35;99786.69;5029209;28;20195;-66
2024/04/03 00:31:32;;;;;;;6.88;2.85;;;;;;;12.56;96.40;99792.47;5062506;28;20120;-68
2024/04/03 00:33:58;;;;;;;5.40;2.63;;;;;;;12.49;96.57;99789.03;5027384;28;20029;-67
2024/04/03 00:36:23;;;;;;;4.05;2.20;;;;;;;12.56;96.44;99789.03;5031472;28;20128;-68
2024/04/03 00:38:49;;;;;;;7.82;2.70;;;;;;;12.37;96.65;99798.31;5010956;28;20071;-69
2024/04/03 00:41:14;;;;;;;9.65;3.03;;;;;;;12.37;96.20;99792.91;5027478;28;20471;-66
2024/04/03 00:43:40;;;;;;;8.23;2.42;;;;;;;12.39;96.39;99789.81;5041962;28;20025;-68
2024/04/03 00:46:05;;;;;;;3.88;2.20;;;;;;;12.44;96.21;99792.91;5028972;28;20128;-66
2024/04/03 00:48:31;;;;;;;3.85;2.20;;;;;;;12.39;95.49;99787.88;5026470;28;20131;-70
2024/04/03 00:50:59;;;;;;;4.57;2.88;;;;;;;12.42;95.67;99781.72;5027186;28;20033;-67
2024/04/03 00:53:25;;;;;;;5.00;2.50;;;;;;;12.38;95.72;99794.47;5013418;28;20087;-67
2024/04/03 00:55:51;;;;;;;6.72;2.67;;;;;;;12.35;95.95;99797.91;5044986;28;20037;-66
2024/04/03 00:58:16;;;;;;;6.80;3.00;;;;;;;12.38;95.21;99797.16;5013187;28;20037;-67
2024/04/03 01:00:42;;;;;;;7.47;2.90;;;;;;;12.32;94.74;99789.81;5025232;28;20041;-67
2024/04/03 01:03:08;;;;;;;3.67;2.20;;;;;;;12.28;95.22;99783.66;5043169;28;20108;-66
2024/04/03 01:05:33;;;;;;;5.22;2.83;;;;;;;12.19;94.41;99792.16;5026606;28;20395;-67
2024/04/03 01:07:59;;;;;;;7.13;2.97;;;;;;;12.12;94.37;99781.34;5028981;28;20029;-68
2024/04/03 01:10:28;;;;;;;4.82;2.47;;;;;;;11.99;95.20;99780.19;5062766;28;20038;-68
2024/04/03 01:12:55;;;;;;;7.90;2.55;;;;;;;12.05;94.61;99794.06;5029005;28;20033;-67
2024/04/03 01:15:21;;;;;;;6.97;2.72;;;;;;;12.04;93.97;99787.16;5010716;28;20029;-67
2024/04/03 01:17:46;;;;;;;3.95;2.33;;;;;;;11.91;94.87;99777.88;5029145;28;20037;-67
2024/04/03 01:20:12;;;;;;;5.30;2.22;;;;;;;11.90;93.47;99782.53;5025565;28;20033;-67
2024/04/03 01:22:38;;;;;;;6.22;2.50;;;;;;;11.70;93.58;99787.50;5024261;28;20410;-69
2024/04/03 01:25:04;;;;;;;3.40;2.17;;;;;;;11.67;94.10;99782.09;5027868;28;20115;-71
2024/04/03 01:27:30;;;;;;;6.57;2.20;;;;;;;11.64;94.29;99786.31;5063675;28;20053;-67
2024/04/03 01:29:55;;;;;;;4.28;2.05;;;;;;;11.58;94.29;99785.13;5046671;28;20052;-67
2024/04/03 01:32:23;;;;;;;3.45;1.85;;;;;;;11.68;93.79;99784.41;5027825;28;20048;-69
2024/04/03 01:34:52;;;;;;;3.85;2.50;;;;;;;11.66;93.38;99783.25;5032380;28;20571;-66
2024/04/03 01:37:18;;;;;;;4.28;1.80;;;;;;;11.60;93.53;99790.91;5062815;28;20529;-67
2024/04/03 01:39:44;;;;;;;2.47;1.50;;;;;;;11.53;93.42;99787.44;5033005;28;20065;-68
2024/04/03 01:42:11;;;;;;;4.05;2.17;;;;;;;11.50;94.23;99791.66;5030372;28;20099;-67
2024/04/03 01:44:37;;;;;;;7.47;2.50;;;;;;;11.62;93.62;99794.00;5045627;28;20511;-68
2024/04/03 01:47:03;;;;;;;5.38;2.58;;;;;;;11.74;93.41;99790.19;5032352;28;20126;-67
2024/04/03 01:49:28;;;;;;;3.25;1.75;;;;;;;11.75;93.20;99792.50;5031511;28;20479;-67
2024/04/03 01:51:54;;;;;;;3.70;1.70;;;;;;;11.73;93.37;99788.66;5059880;28;20029;-67
2024/04/03 01:54:19;;;;;;;4.65;2.50;;;;;;;11.76;93.12;99796.00;5030955;28;20043;-66
2024/04/03 01:56:45;;;;;;;6.63;2.80;;;;;;;11.79;93.41;99804.06;5048260;28;20995;-67
2024/04/03 01:59:10;;;;;;;5.35;2.53;;;;;;;11.67;92.45;99801.75;5062953;28;20112;-68
2024/04/03 02:01:37;;;;;;;5.60;2.35;;;;;;;11.44;93.22;99800.53;5029352;28;20053;-68
2024/04/03 02:04:03;;;;;;;4.25;3.10;;;;;;;11.43;93.78;99807.06;5032693;28;20510;-67
2024/04/03 02:06:28;;;;;;;10.80;2.28;;;;;;;11.56;92.68;99800.16;5048544;28;20120;-67
2024/04/03 02:08:53;;;;;;;7.32;2.45;;;;;;;11.53;92.94;99798.22;5014829;28;20029;-66
2024/04/03 02:11:19;;;;;;;9.15;2.65;;;;;;;11.46;92.62;99804.34;5042996;28;20172;-68
2024/04/03 02:13:44;;;;;;;4.93;2.50;;;;;;;11.54;92.30;99800.53;5034735;28;20052;-66
2024/04/03 02:16:10;;;;;;;4.10;2.25;;;;;;;11.63;92.28;99808.28;5031527;28;20060;-67
2024/04/03 02:18:35;;;;;;;6.85;2.15;;;;;;;11.57;92.41;99807.09;5046971;28;20033;-66
2024/04/03 02:21:01;;;;;;;6.47;2.17;;;;;;;11.58;92.16;99812.09;5032281;28;20487;-67
2024/04/03 02:23:27;;;;;;;3.95;2.28;;;;;;;11.49;92.43;99813.63;5012038;28;20091;-66
2024/04/03 02:25:52;;;;;;;5.30;2.70;;;;;;;11.52;92.69;99815.53;5041624;28;20523;-66
2024/04/03 02:28:18;;;;;;;4.30;2.42;;;;;;;11.54;92.91;99814.00;5044178;28;20028;-67
2024/04/03 02:30:43;;;;;;;8.10;2.30;;;;;;;11.65;92.01;99812.13;5010726;28;20049;-67
2024/04/03 02:33:10;;;;;;;3.50;2.20;;;;;;;11.68;91.80;99821.41;5033399;28;20082;-67
2024/04/03 02:35:36;;;;;;;4.28;2.15;;;;;;;11.68;91.51;99826.78;5052367;28;20487;-67
2024/04/03 02:38:01;;;;;;;2.63;1.88;;;;;;;11.52;91.90;99837.88;5043510;28;20057;-67
2024/04/03 02:40:27;;;;;;;6.60;2.50;;;;;;;11.46;92.37;99828.63;5045405;28;20032;-67
2024/04/03 02:42:52;;;;;;;7.78;2.58;;;;;;;11.41;92.36;99836.31;5025889;28;20042;-68
2024/04/03 02:45:18;;;;;;;4.40;2.00;;;;;;;11.36;92.27;99828.59;5026332;28;20029;-67
2024/04/03 02:47:43;;;;;;;3.78;2.10;;;;;;;11.50;91.70;99829.41;5028618;28;20041;-68
2024/04/03 02:50:09;;;;;;;4.13;1.88;;;;;;;11.50;91.76;99834.03;5029748;28;20120;-68
2024/04/03 02:52:34;;;;;;;6.10;1.90;;;;;;;11.43;91.78;99829.41;5027412;28;20037;-67
2024/04/03 02:55:04;;;;;;;4.95;2.28;;;;;;;11.45;92.18;99827.09;5045250;28;20059;-67
2024/04/03 02:57:33;;;;;;;3.83;2.33;;;;;;;11.47;91.81;99824.00;5027741;28;20175;-68
2024/04/03 02:59:58;;;;;;;3.58;1.48;;;;;;;11.45;91.83;99826.31;5032170;28;20025;-67
2024/04/03 03:02:24;;;;;;;3.28;2.03;;;;;;;11.46;91.73;99828.63;5041379;28;20874;-68
2024/04/03 03:04:49;;;;;;;5.30;2.08;;;;;;;11.53;91.71;99833.28;5031546;28;20513;-68
2024/04/03 03:07:15;;;;;;;3.55;2.17;;;;;;;11.43;91.68;99829.41;5011512;28;20497;-68
2024/04/03 03:09:40;;;;;;;3.80;1.80;;;;;;;11.44;91.39;99830.94;5044606;28;20040;-67
2024/04/03 03:12:06;;;;;;;4.05;2.22;;;;;;;11.41;91.19;99825.53;5027311;28;20406;-68
2024/04/03 03:14:32;;;;;;;3.88;2.35;;;;;;;11.46;91.25;99822.44;5030928;28;20112;-68
2024/04/03 03:16:57;;;;;;;2.80;1.83;;;;;;;11.46;90.05;99814.38;5031286;28;20041;-68
2024/04/03 03:19:24;;;;;;;2.28;1.70;;;;;;;11.44;91.05;99812.06;5031987;28;20037;-67
2024/04/03 03:21:49;;;;;;;3.65;1.95;;;;;;;11.38;90.75;99815.53;5027824;28;20079;-69
2024/04/03 03:24:16;;;;;;;4.47;2.03;;;;;;;11.34;90.51;99825.50;5030071;28;20037;-67
2024/04/03 03:26:42;;;;;;;4.43;2.60;;;;;;;11.31;90.29;99818.94;5027916;28;20021;-70
2024/04/03 03:29:07;;;;;;;4.35;1.60;;;;;;;11.33;90.84;99829.34;5043305;28;20035;-67
2024/04/03 03:31:33;;;;;;;2.58;1.67;;;;;;;11.30;89.74;99822.03;5044014;28;20534;-68
2024/04/03 03:33:58;;;;;;;2.20;1.50;;;;;;;11.20;90.17;99820.06;5030564;28;20029;-68
2024/04/03 03:36:24;;;;;;;1.55;1.40;;;;;;;11.23;90.49;99830.84;5063721;28;20065;-68
2024/04/03 03:38:49;;;;;;;2.75;1.42;;;;;;;11.20;90.09;99830.84;5010852;28;20592;-68
2024/04/03 03:41:15;;;;;;;1.75;1.42;;;;;;;11.13;90.24;99830.81;5045409;28;20832;-68
2024/04/03 03:43:40;;;;;;;3.50;1.52;;;;;;;11.16;90.25;99833.53;5043536;28;20045;-68
2024/04/03 03:46:06;;;;;;;3.30;1.30;;;;;;;11.12;89.73;99829.25;5047147;28;20120;-68
2024/04/03 03:54:01;;;;;;;1.65;1.10;;;;;;;11.00;89.65;99827.66;5028612;28;20067;-67
2024/04/03 03:56:27;;;;;;;2.33;1.38;;;;;;;10.97;89.50;99831.13;5026625;28;20088;-69
2024/04/03 03:58:53;;;;;;;1.63;1.52;;;;;;;11.00;88.97;99824.19;5028691;28;20033;-68
2024/04/03 04:01:18;;;;;;;2.25;1.27;;;;;;;11.02;88.87;99833.44;5025395;28;20057;-68
2024/04/03 04:03:44;;;;;;;2.35;1.33;;;;;;;11.05;88.86;99829.25;5058893;28;20045;-68
2024/04/03 04:06:10;;;;;;;6.63;1.77;;;;;;;10.99;88.63;99828.06;5026122;28;20022;-68
2024/04/03 04:08:35;;;;;;;3.53;1.58;;;;;;;10.92;89.54;99828.78;5042707;28;20087;-68
2024/04/03 04:11:02;;;;;;;1.75;1.27;;;;;;;10.95;89.22;99838.03;5044231;28;20047;-68
2024/04/03 04:13:27;;;;;;;2.78;1.45;;;;;;;10.89;89.50;99833.00;5030836;28;20441;-68
2024/04/03 04:15:53;;;;;;;2.00;1.38;;;;;;;10.92;89.61;99841.50;5043714;28;20033;-67
2024/04/03 04:18:18;;;;;;;2.80;1.60;;;;;;;10.89;88.67;99838.41;5029994;28;20525;-68
2024/04/03 04:20:55;;;;;;;4.75;1.55;;;;;;;10.88;88.98;99836.84;5043644;28;20136;-68
2024/04/03 04:23:24;;;;;;;2.45;1.50;;;;;;;10.87;88.48;99840.69;5028579;28;20057;-68
2024/04/03 04:26:01;;;;;;;3.17;1.48;;;;;;;10.81;87.91;99841.41;5033351;28;20037;-67
2024/04/03 04:28:27;;;;;;;2.50;1.40;;;;;;;10.83;87.06;99839.13;5027210;28;20457;-68
2024/04/03 04:30:57;;;;;;;3.58;1.77;;;;;;;10.76;87.16;99853.31;5026328;28;20029;-67
2024/04/03 04:33:23;;;;;;;2.38;1.77;;;;;;;10.72;87.46;99860.59;5026993;28;20033;-68
2024/04/03 04:35:53;;;;;;;2.85;1.55;;;;;;;10.65;87.45;99865.94;5027738;28;20025;-68
2024/04/03 04:38:19;;;;;;;3.58;1.85;;;;;;;10.71;87.73;99867.13;5030646;28;20100;-68
2024/04/03 04:41:02;;;;;;;3.90;1.90;;;;;;;10.71;86.90;99853.69;5027811;28;20459;-70
2024/04/03 04:43:30;;;;;;;2.05;1.58;;;;;;;10.67;86.94;99862.88;5056899;28;20623;-66
2024/04/03 04:45:55;;;;;;;3.83;1.92;;;;;;;10.62;87.05;99861.31;5032184;28;20033;-68
2024/04/03 04:48:21;;;;;;;3.00;1.58;;;;;;;10.67;85.80;99860.94;5029390;28;20107;-68
2024/04/03 04:50:54;;;;;;;1.73;1.33;;;;;;;10.55;87.40;99871.25;5048369;28;20021;-68
2024/04/03 04:53:20;;;;;;;1.83;1.33;;;;;;;10.63;86.37;99873.63;5064647;28;20149;-68
2024/04/03 04:55:58;;;;;;;2.63;1.92;;;;;;;10.64;86.51;99879.78;5043546;28;20116;-68
2024/04/03 04:58:23;;;;;;;2.90;1.70;;;;;;;10.63;86.06;99891.69;5040427;28;20036;-68
2024/04/03 05:00:50;;;;;;;2.50;1.50;;;;;;;10.55;86.25;99888.16;5031065;28;20116;-68
2024/04/03 05:03:15;;;;;;;2.65;1.40;;;;;;;10.66;85.56;99885.56;5033229;28;20065;-69
2024/04/03 05:05:41;;;;;;;1.77;1.60;;;;;;;10.63;84.84;99889.78;5045621;28;20529;-68
2024/04/03 05:08:07;;;;;;;2.47;1.50;;;;;;;10.58;84.90;99889.34;5064775;28;20064;-68
2024/04/03 05:10:34;;;;;;;1.95;1.45;;;;;;;10.55;84.65;99896.25;5045935;28;20048;-67
2024/04/03 05:13:00;;;;;;;2.20;1.55;;;;;;;10.52;85.64;99891.63;5031452;28;20029;-68
2024/04/03 05:15:30;;;;;;;2.70;1.50;;;;;;;10.36;84.74;99893.00;5047793;28;20461;-66
2024/04/03 05:17:55;;;;;;;2.53;1.52;;;;;;;10.44;84.28;99889.22;5047716;28;20033;-67
2024/04/03 05:20:21;;;;;;;2.67;1.30;;;;;;;10.42;83.54;99895.00;5032413;28;20021;-66
2024/04/03 05:22:46;;;;;;;2.88;1.42;;;;;;;10.25;83.51;99897.53;5033803;28;20036;-67
2024/04/03 05:25:12;;;;;;;3.15;1.90;;;;;;;10.20;83.67;99897.88;5044624;28;20395;-67
2024/04/03 05:27:38;;;;;;;1.85;1.38;;;;;;;10.21;83.82;99889.41;5035266;28;20040;-68
2024/04/03 05:30:03;;;;;;;2.30;1.20;;;;;;;10.18;83.71;99890.16;5034272;28;20037;-67
2024/04/03 05:32:29;;;;;;;1.35;1.00;;;;;;;10.17;84.10;99893.22;5028904;28;20041;-69
2024/04/03 05:34:54;;;;;;;4.32;1.73;;;;;;;10.14;84.08;99889.38;5045395;28;20128;-68
2024/04/03 05:37:20;;;;;;;2.72;1.52;;;;;;;10.14;84.08;99888.59;5046663;28;20060;-67
2024/04/03 05:39:45;;;;;;;1.60;1.50;;;;;;;10.07;84.06;99886.56;5034213;28;20036;-67
2024/04/03 05:42:11;;;;;;;2.40;1.38;;;;;;;10.09;84.47;99889.66;5043798;28;20018;-68
2024/04/03 05:44:36;;;;;;;3.28;1.75;;;;;;;10.12;85.02;99890.88;5031410;28;20056;-68
2024/04/03 05:47:02;;;;;;;2.67;1.55;;;;;;;10.13;85.00;99893.19;5013804;28;20641;-68
2024/04/03 05:49:27;;;;;;;3.55;1.67;;;;;;;10.14;84.67;99894.75;5037391;28;20036;-67
2024/04/03 05:51:53;;;;;;;2.42;1.17;;;;;;;10.24;83.38;99877.91;5042860;28;20039;-68
2024/04/03 05:54:18;;;;;;;4.15;1.50;;;;;;;10.21;83.16;99884.03;5033071;28;20033;-67
2024/04/03 05:56:44;;;;;;;1.92;1.30;;;;;;;10.21;83.51;99875.97;5050435;28;20041;-68
2024/04/03 05:59:09;;;;;;;3.63;1.95;;;;;;;10.18;82.98;99884.75;5047675;28;20030;-67
2024/04/03 06:01:35;;;;;;;2.75;1.40;;;;;;;10.20;83.48;99879.03;5031854;28;20537;-68
2024/04/03 06:04:00;;;;;;;1.90;1.08;;;;;;;10.23;82.93;99911.34;5014309;28;20034;-67
2024/04/03 06:06:26;;;;;;;2.70;1.65;;;;;;;10.15;83.40;99907.03;5045074;28;20502;-71
2024/04/03 06:08:52;;;;;;;3.35;1.27;;;;;;;10.09;83.72;99905.00;5043880;28;20402;-68
2024/04/03 06:11:17;;;;;;;1.92;1.55;;;;;;;10.09;83.20;99895.03;5045696;28;20106;-67
2024/04/03 06:13:43;;;;;;;1.92;1.20;;;;;;;10.16;82.84;99899.75;5045700;28;20199;-67
2024/04/03 06:16:08;;;;;;;3.00;1.55;;;;;;;10.17;83.15;99902.06;5033698;28;20067;-68
2024/04/03 06:18:34;;;;;;;2.03;1.15;;;;;;;10.17;82.36;99899.38;5032106;28;20033;-68
2024/04/03 06:21:10;;;;;;;3.40;1.63;;;;;;;10.14;81.98;99900.13;5043774;28;20021;-67
2024/04/03 06:23:35;;;;;;;2.40;1.27;;;;;;;10.27;82.51;99892.53;5042062;28;20033;-68
2024/04/03 06:26:02;;;;;;;2.25;1.30;;;;;;;10.23;81.39;99900.59;5032474;28;20039;-67
2024/04/03 06:28:27;;;;;;;3.83;1.55;;;;;;;10.29;80.82;99896.41;5043639;28;20033;-67
2024/04/03 06:30:53;;;;;;;4.28;1.67;;;;;;;10.27;80.73;99896.00;5031684;28;20021;-68
2024/04/03 06:33:18;;;;;;;2.47;1.42;;;;;;;10.22;79.88;99915.16;5029539;28;20034;-69
2024/04/03 06:35:44;;;;;;;1.38;1.23;;;;;;;10.36;80.39;99915.31;5031847;28;20045;-67
2024/04/03 06:38:09;;;;;;;3.85;1.83;;;;;;;10.55;78.71;99908.94;5043868;28;20379;-68
2024/04/03 06:40:35;;;;;;;2.10;1.48;;;;;;;10.61;78.15;99905.53;5041351;28;20030;-67
2024/04/03 06:43:03;;;;;;;3.67;1.50;;;;;;;10.58;77.61;99913.56;5061709;28;20037;-67
2024/04/03 06:45:30;;;;;;;2.65;1.42;;;;;;;10.56;77.24;99908.56;5047644;28;20207;-67
2024/04/03 06:47:55;;;;;;;1.85;1.23;;;;;;;10.56;77.67;99911.25;5031707;28;20033;-68
2024/04/03 06:50:21;;;;;;;3.03;1.63;;;;;;;10.50;77.20;99914.66;5044494;28;20495;-68
2024/04/03 06:52:47;;;;;;;1.45;1.02;;;;;;;10.35;76.82;99911.09;5044728;28;20048;-67
2024/04/03 06:55:12;;;;;;;1.85;1.52;;;;;;;10.43;77.99;99901.91;5028778;28;20037;-68
2024/04/03 06:57:38;;;;;;;1.95;1.30;;;;;;;10.62;78.61;99906.31;5044194;28;20037;-68
2024/04/03 07:00:04;;;;;;;1.55;1.20;;;;;;;10.76;78.65;99906.41;5033707;28;20021;-68
2024/04/03 07:02:29;;;;;;;2.05;1.27;;;;;;;10.83;78.11;99901.84;5031141;28;20502;-67
2024/04/03 07:04:55;;;;;;;1.75;1.20;;;;;;;10.88;77.55;99906.88;5049582;28;20041;-67
2024/04/03 07:07:20;;;;;;;1.00;0.90;;;;;;;10.93;77.26;99902.28;5031604;28;20049;-67
2024/04/03 07:09:46;;;;;;;2.25;1.33;;;;;;;10.97;77.10;99900.38;5045289;28;20032;-70
2024/04/03 07:12:11;;;;;;;3.13;1.10;;;;;;;10.99;77.51;99898.88;5014753;28;20033;-67
2024/04/03 07:14:37;;;;;;;1.75;1.25;;;;;;;10.96;78.00;99898.84;5028220;28;20483;-67
2024/04/03 07:17:02;;;;;;;2.65;1.38;;;;;;;10.88;76.94;99893.41;5043918;28;20084;-68
2024/04/03 07:19:29;;;;;;;1.75;1.02;;;;;;;11.00;75.70;99902.31;5014421;28;20033;-68
2024/04/03 07:21:54;;;;;;;3.30;1.20;;;;;;;10.95;75.56;99910.78;5043964;28;20049;-67
2024/04/03 07:24:20;;;;;;;2.55;1.10;;;;;;;10.90;75.94;99907.28;5041669;28;20056;-68
2024/04/03 07:26:46;;;;;;;1.73;0.90;;;;;;;10.89;76.10;99905.75;5021345;28;20033;-67
2024/04/03 07:29:14;;;;;;;2.20;1.15;;;;;;;10.92;75.73;99912.28;5027706;28;20076;-67
2024/04/03 07:31:40;;;;;;;3.30;1.65;;;;;;;10.87;76.41;99910.72;5040324;28;20049;-68
2024/04/03 07:34:05;;;;;;;1.95;1.23;;;;;;;10.78;75.96;99902.19;5027728;28;20029;-68
2024/04/03 07:36:31;;;;;;;2.63;1.50;;;;;;;10.81;75.76;99914.13;5044530;28;20391;-68
2024/04/03 07:38:57;;;;;;;1.58;0.95;;;;;;;10.86;76.47;99908.38;5047662;28;20106;-67
2024/04/03 07:41:30;;;;;;;2.08;1.10;;;;;;;10.91;76.41;99910.75;5045552;28;20112;-67
2024/04/03 07:43:56;;;;;;;3.50;1.63;;;;;;;10.74;76.63;99911.41;5043909;28;20596;-67
2024/04/03 07:46:22;;;;;;;1.38;0.80;;;;;;;10.79;78.33;99916.44;5040672;28;20034;-68
2024/04/03 07:48:48;;;;;;;3.63;1.58;;;;;;;10.77;77.92;99911.41;5027258;28;20402;-68
2024/04/03 07:51:13;;;;;;;1.42;1.10;;;;;;;10.90;78.11;99925.34;5045126;28;20033;-67
2024/04/03 07:53:39;;;;;;;2.03;1.35;;;;;;;11.00;79.55;99923.88;5029543;28;20025;-68
2024/04/03 07:56:05;;;;;;;2.25;1.17;;;;;;;11.06;78.73;99928.53;5032305;28;20493;-68
2024/04/03 07:58:30;;;;;;;2.00;1.30;;;;;;;11.16;78.98;99922.47;5024648;28;20049;-68
2024/04/03 08:01:00;;;;;;;2.30;1.35;;;;;;;11.24;79.29;99925.97;5031464;28;20036;-67
2024/04/03 08:03:25;;;;;;;2.42;1.13;;;;;;;11.28;79.68;99924.06;5030272;28;20048;-67
2024/04/03 08:05:54;;;;;;;1.40;1.17;;;;;;;11.40;80.13;99924.50;5030148;28;20021;-68
2024/04/03 08:08:23;;;;;;;2.03;1.00;;;;;;;11.57;79.02;99926.53;5058733;28;20029;-68
2024/04/03 08:10:49;;;;;;;6.20;1.63;;;;;;;11.68;78.48;99921.19;5044182;28;20029;-68
2024/04/03 08:13:14;;;;;;;1.73;1.05;;;;;;;11.69;77.92;99915.41;5043331;28;20156;-67
2024/04/03 08:15:40;;;;;;;1.40;1.08;;;;;;;11.74;77.91;99931.25;5062555;28;20036;-69
2024/04/03 08:18:06;;;;;;;3.10;1.50;;;;;;;11.62;76.06;99918.06;5028234;28;20037;-68
2024/04/03 08:20:31;;;;;;;2.13;1.08;;;;;;;11.40;76.92;99916.41;5028746;28;20028;-67
2024/04/03 08:22:57;;;;;;;2.40;1.15;;;;;;;11.46;77.88;99916.81;5029157;28;20026;-67
2024/04/03 08:25:23;;;;;;;1.70;1.02;;;;;;;11.59;78.35;99924.19;5026167;28;20558;-68
2024/04/03 08:27:48;;;;;;;2.90;1.30;;;;;;;11.70;78.53;99922.38;5027855;28;20037;-68
2024/04/03 08:30:14;;;;;;;1.98;1.02;;;;;;;11.76;78.66;99928.16;5029618;28;20116;-70
2024/04/03 08:32:40;;;;;;;2.58;1.25;;;;;;;11.84;78.38;99929.72;5028048;28;20593;-68
2024/04/03 08:35:05;;;;;;;2.83;1.25;;;;;;;11.92;78.51;99925.13;5014599;28;20037;-68
2024/04/03 08:37:31;;;;;;;2.17;1.08;;;;;;;12.02;77.79;99922.44;5049017;28;20021;-68
2024/04/03 08:39:56;;;;;;;1.90;1.20;;;;;;;12.05;77.49;99931.72;5032136;28;20059;-68
2024/04/03 08:42:22;;;;;;;2.22;0.93;;;;;;;11.73;75.58;99928.91;5034908;28;20398;-67
2024/04/03 08:44:48;;;;;;;2.10;1.15;;;;;;;11.78;77.17;99933.94;5033938;28;20029;-68
2024/04/03 08:47:15;;;;;;;3.08;1.42;;;;;;;11.81;76.56;99927.78;5030247;28;20033;-67
2024/04/03 08:49:41;;;;;;;1.90;1.35;;;;;;;11.94;76.77;99923.59;5017724;28;20033;-68
2024/04/03 08:52:11;;;;;;;4.75;1.77;;;;;;;11.95;76.17;99922.44;5030421;28;20427;-68
2024/04/03 08:54:41;;;;;;;3.33;1.55;;;;;;;11.87;76.16;99918.16;5031991;28;20036;-68
2024/04/03 08:57:08;;;;;;;1.50;1.15;;;;;;;11.91;75.17;99924.34;5034556;28;20029;-69
2024/04/03 08:59:36;;;;;;;1.75;1.15;;;;;;;12.06;75.94;99930.56;5034901;28;20069;-68
2024/04/03 09:02:02;;;;;;;2.33;1.15;;;;;;;12.20;77.99;99928.66;5030148;28;20040;-70
2024/04/03 09:04:28;;;;;;;4.22;1.73;;;;;;;12.35;76.79;99938.31;5031566;28;21274;-67
2024/04/03 09:06:54;;;;;;;2.83;1.35;;;;;;;12.43;76.10;99939.88;5017469;28;20025;-68
2024/04/03 09:09:21;;;;;;;2.80;1.40;;;;;;;12.46;76.57;99935.66;5029201;28;20029;-67
2024/04/03 09:11:48;;;;;;;2.85;1.33;;;;;;;12.52;76.71;99934.84;5029834;28;20037;-68
2024/04/03 09:14:27;;;;;;;3.55;1.88;;;;;;;12.55;77.36;99941.44;5033322;28;20116;-67
2024/04/03 09:17:00;;;;;;;3.53;1.67;;;;;;;12.61;76.89;99939.88;5028824;28;20044;-67
2024/04/03 09:19:26;;;;;;;3.20;1.63;;;;;;;12.65;77.85;99936.03;5043061;28;20029;-67
2024/04/03 09:21:52;;;;;;;3.05;1.73;;;;;;;12.74;76.85;99934.88;5027058;28;20079;-68
2024/04/03 09:24:18;;;;;;;6.65;2.35;;;;;;;12.79;75.92;99931.78;5029448;28;20037;-68
2024/04/03 09:26:48;;;;;;;6.13;2.30;;;;;;;12.59;76.76;99934.09;5033114;28;20029;-67
2024/04/03 09:29:15;;;;;;;3.00;1.85;;;;;;;12.65;75.25;99930.63;5043958;28;20033;-69
2024/04/03 09:31:44;;;;;;;2.95;1.75;;;;;;;12.67;75.93;99925.63;5058462;28;20120;-68
2024/04/03 09:34:11;;;;;;;3.75;2.20;;;;;;;12.73;75.92;99920.59;5031160;28;20041;-68
2024/04/03 09:36:36;;;;;;;4.68;2.10;;;;;;;12.85;78.79;99924.84;5028592;28;20040;-67
2024/04/03 09:39:02;;;;;;;4.40;1.67;;;;;;;13.11;79.60;99930.63;5031108;28;20038;-68
2024/04/03 09:41:30;;;;;;;2.97;1.55;;;;;;;13.34;78.52;99928.25;5027294;28;20035;-68
2024/04/03 09:44:00;;;;;;;4.43;2.30;;;;;;;13.33;74.51;99928.63;5029401;28;20045;-67
2024/04/03 09:46:58;;;;;;;3.85;2.17;;;;;;;13.34;76.75;99919.34;5043883;28;20037;-67
2024/04/03 09:49:27;;;;;;;3.90;2.00;;;;;;;13.28;75.84;99924.41;5028562;28;20033;-68
2024/04/03 09:51:55;;;;;;;5.03;1.88;;;;;;;13.25;76.44;99925.19;5025557;28;20029;-69
2024/04/03 09:54:23;;;;;;;2.70;1.55;;;;;;;13.27;78.37;99922.88;5044531;28;20172;-68
2024/04/03 09:56:49;;;;;;;5.55;1.95;;;;;;;13.33;78.19;99917.81;5045985;28;20388;-67
2024/04/03 09:59:19;;;;;;;3.47;1.92;;;;;;;13.33;77.88;99920.53;5013107;28;20049;-68
2024/04/03 10:01:45;;;;;;;5.00;2.10;;;;;;;13.32;77.11;99921.69;5030066;28;20534;-68
2024/04/03 10:04:12;;;;;;;5.60;2.10;;;;;;;13.12;77.58;99920.59;5028963;28;20120;-67
2024/04/03 10:06:41;;;;;;;5.00;2.08;;;;;;;13.14;76.93;99918.25;5028982;28;20064;-67
2024/04/03 10:09:21;;;;;;;3.22;1.80;;;;;;;13.05;76.87;99915.16;5028821;28;20045;-68
2024/04/03 10:11:48;;;;;;;4.75;1.38;;;;;;;12.92;77.79;99922.13;5044365;28;20037;-67
2024/04/03 10:14:27;;;;;;;4.22;2.17;;;;;;;12.83;79.73;99924.44;5030301;28;20026;-67
2024/04/03 10:16:54;;;;;;;3.05;1.90;;;;;;;12.99;79.50;99924.84;5044156;28;20040;-68
2024/04/03 10:19:24;;;;;;;6.15;2.40;;;;;;;12.97;78.33;99924.44;5014066;28;20036;-68
2024/04/03 10:21:50;;;;;;;4.47;1.98;;;;;;;12.86;80.01;99921.75;5027154;28;20029;-66
2024/04/03 10:24:19;;;;;;;6.10;2.13;;;;;;;12.51;81.21;99930.63;5044236;28;20517;-68
2024/04/03 10:26:46;;;;;;;5.18;2.50;;;;;;;12.72;81.74;99916.34;5034882;28;20130;-68
2024/04/03 10:29:12;;;;;;;3.55;2.05;;;;;;;12.77;82.53;99926.00;5030386;28;20040;-67
2024/04/03 10:31:38;;;;;;;3.97;2.42;;;;;;;12.92;81.41;99927.53;5029150;28;20033;-68
2024/04/03 10:34:03;;;;;;;6.18;2.05;;;;;;;12.86;80.62;99923.66;5045519;28;20124;-67
2024/04/03 10:36:29;;;;;;;3.60;1.95;;;;;;;12.81;81.66;99926.78;5042112;28;20044;-67
2024/04/03 10:38:54;;;;;;;4.65;2.55;;;;;;;12.80;81.90;99923.28;5029720;28;20112;-66
2024/04/03 10:41:22;;;;;;;3.28;1.45;;;;;;;12.86;82.55;99929.84;5028042;28;20033;-68
2024/04/03 10:43:48;;;;;;;3.20;1.80;;;;;;;12.97;82.30;99924.44;5044974;28;20029;-67
2024/04/03 10:46:24;;;;;;;4.32;2.15;;;;;;;12.89;81.15;99931.00;5062129;28;20037;-67
2024/04/03 10:48:49;;;;;;;3.15;1.90;;;;;;;12.78;83.63;99912.09;5030040;28;20112;-67
2024/04/03 10:51:15;;;;;;;4.57;2.58;;;;;;;12.94;84.09;99914.41;5062063;28;20101;-67
2024/04/03 10:53:41;;;;;;;4.57;2.22;;;;;;;13.12;83.42;99918.66;5045424;28;20410;-67
2024/04/03 10:56:06;;;;;;;4.30;2.38;;;;;;;13.22;83.91;99919.78;5029930;28;20034;-67
2024/04/03 10:58:32;;;;;;;2.28;1.23;;;;;;;13.23;82.74;99908.56;5044143;28;20029;-67
2024/04/03 11:00:57;;;;;;;4.88;2.20;;;;;;;13.30;83.53;99907.78;5045913;28;20035;-67
2024/04/03 11:03:23;;;;;;;3.47;1.90;;;;;;;13.43;83.11;99917.03;5024845;28;20061;-67
2024/04/03 11:05:49;;;;;;;6.40;2.38;;;;;;;13.56;82.93;99915.44;5013363;28;20041;-67
2024/04/03 11:08:16;;;;;;;4.93;2.28;;;;;;;13.64;82.82;99913.47;5027033;28;20025;-66
2024/04/03 11:10:41;;;;;;;5.03;2.38;;;;;;;13.63;83.87;99917.34;5043407;28;20062;-68
2024/04/03 11:13:15;;;;;;;4.95;2.50;;;;;;;13.70;83.51;99923.50;5027328;28;20032;-67
2024/04/03 11:15:40;;;;;;;3.65;1.98;;;;;;;13.81;83.17;99918.00;5060092;28;20798;-68
2024/04/03 11:18:06;;;;;;;5.93;2.50;;;;;;;13.74;83.69;99918.06;5044622;28;20036;-68
2024/04/03 11:20:34;;;;;;;7.82;2.50;;;;;;;13.65;83.22;99914.97;5042914;28;20059;-66
2024/04/03 11:23:00;;;;;;;5.85;2.65;;;;;;;13.64;82.99;99916.16;5043764;28;20034;-67
2024/04/03 11:25:27;;;;;;;3.80;2.20;;;;;;;13.65;84.68;99914.97;5028839;28;20021;-69
2024/04/03 11:27:53;;;;;;;5.05;2.40;;;;;;;13.70;84.34;99918.06;5028597;28;20035;-70
2024/04/03 11:30:20;;;;;;;5.90;2.42;;;;;;;13.59;84.86;99917.34;5027636;28;20030;-69
2024/04/03 11:32:45;;;;;;;4.45;2.45;;;;;;;13.69;83.43;99923.84;5030089;28;20018;-67
2024/04/03 11:35:13;;;;;;;3.85;2.40;;;;;;;13.61;83.78;99923.13;5029561;28;20506;-67
2024/04/03 11:37:38;;;;;;;3.60;2.03;;;;;;;13.37;84.01;99913.97;5029084;28;20029;-68